sensor_id;sensor_type;location;lat;lon;timestamp;pressure;altitude;pressure_sealevel;temperature;humidity
49627;BME280;35527;54.616;39.786;2023-07-09T00:02:41;99500.50;;;18.05;100.00
49627;BME280;35527;54.616;39.786;2023-07-09T00:05:47;99519.69;;;18.17;100.00
49627;BME280;35527;54.616;39.786;2023-07-09T00:08:52;99520.78;;;18.14;100.00
49627;BME280;35527;54.616;39.786;2023-07-09T00:11:57;99517.69;;;18.09;100.00
49627;BME280;35527;54.616;39.786;2023-07-09T00:15:00;99519.69;;;18.17;100.00
49627;BME280;35527;54.616;39.786;2023-07-09T00:18:04;99514.09;;;18.10;100.00
49627;BME280;35527;54.616;39.786;2023-07-09T00:21:07;99507.91;;;18.11;100.00
49627;BME280;35527;54.616;39.786;2023-07-09T00:24:11;99511.63;;;18.20;100.00
49627;BME280;35527;54.616;39.786;2023-07-09T00:27:20;99515.34;;;18.29;100.00
49627;BME280;35527;54.616;39.786;2023-07-09T00:30:25;99498.06;;;18.26;100.00
49627;BME280;35527;54.616;39.786;2023-07-09T00:33:27;99496.16;;;18.28;100.00
49627;BME280;35527;54.616;39.786;2023-07-09T00:36:37;99482.22;;;18.28;100.00
49627;BME280;35527;54.616;39.786;2023-07-09T00:39:41;99473.41;;;18.17;100.00
49627;BME280;35527;54.616;39.786;2023-07-09T00:42:47;99472.22;;;18.21;100.00
49627;BME280;35527;54.616;39.786;2023-07-09T00:49:29;99484.59;;;18.31;100.00
49627;BME280;35527;54.616;39.786;2023-07-09T00:52:40;99458.28;;;18.21;100.00
49627;BME280;35527;54.616;39.786;2023-07-09T00:55:54;99456.00;;;18.16;100.00
49627;BME280;35527;54.616;39.786;2023-07-09T00:59:02;99471.41;;;18.32;100.00
49627;BME280;35527;54.616;39.786;2023-07-09T01:02:10;99474.75;;;18.34;100.00
49627;BME280;35527;54.616;39.786;2023-07-09T01:05:18;99486.16;;;18.33;100.00
49627;BME280;35527;54.616;39.786;2023-07-09T01:08:24;99475.31;;;18.27;100.00
49627;BME280;35527;54.616;39.786;2023-07-09T01:11:31;99473.78;;;18.35;100.00
49627;BME280;35527;54.616;39.786;2023-07-09T01:14:37;99456.59;;;18.31;100.00
49627;BME280;35527;54.616;39.786;2023-07-09T01:17:41;99431.00;;;18.12;100.00
49627;BME280;35527;54.616;39.786;2023-07-09T01:20:47;99453.03;;;18.21;100.00
49627;BME280;35527;54.616;39.786;2023-07-09T01:23:50;99457.56;;;18.19;100.00
49627;BME280;35527;54.616;39.786;2023-07-09T01:26:56;99446.38;;;18.06;100.00
49627;BME280;35527;54.616;39.786;2023-07-09T01:30:02;99438.38;;;18.07;100.00
49627;BME280;35527;54.616;39.786;2023-07-09T01:33:06;99444.09;;;18.12;100.00
49627;BME280;35527;54.616;39.786;2023-07-09T01:36:16;99446.34;;;18.17;100.00
49627;BME280;35527;54.616;39.786;2023-07-09T01:39:20;99460.66;;;18.24;100.00
49627;BME280;35527;54.616;39.786;2023-07-09T01:42:24;99455.66;;;18.10;100.00
49627;BME280;35527;54.616;39.786;2023-07-09T01:45:32;99462.69;;;18.20;100.00
49627;BME280;35527;54.616;39.786;2023-07-09T01:48:36;99459.13;;;18.21;100.00
49627;BME280;35527;54.616;39.786;2023-07-09T01:51:49;99466.00;;;18.22;100.00
49627;BME280;35527;54.616;39.786;2023-07-09T01:54:55;99445.03;;;18.11;100.00
49627;BME280;35527;54.616;39.786;2023-07-09T01:57:58;99452.81;;;18.24;100.00
49627;BME280;35527;54.616;39.786;2023-07-09T02:01:01;99448.03;;;18.18;100.00
49627;BME280;35527;54.616;39.786;2023-07-09T02:04:08;99423.25;;;18.11;100.00
49627;BME280;35527;54.616;39.786;2023-07-09T02:07:11;99431.50;;;18.17;100.00
49627;BME280;35527;54.616;39.786;2023-07-09T02:10:16;99421.72;;;18.19;100.00
49627;BME280;35527;54.616;39.786;2023-07-09T02:13:19;99419.22;;;18.18;100.00
49627;BME280;35527;54.616;39.786;2023-07-09T02:16:28;99420.28;;;18.15;100.00
49627;BME280;35527;54.616;39.786;2023-07-09T02:19:32;99433.50;;;18.25;100.00
49627;BME280;35527;54.616;39.786;2023-07-09T02:22:38;99411.94;;;18.10;100.00
49627;BME280;35527;54.616;39.786;2023-07-09T02:25:43;99417.78;;;18.14;100.00
49627;BME280;35527;54.616;39.786;2023-07-09T02:28:51;99413.63;;;18.22;100.00
49627;BME280;35527;54.616;39.786;2023-07-09T02:31:57;99413.16;;;18.29;100.00
49627;BME280;35527;54.616;39.786;2023-07-09T02:35:02;99429.59;;;18.42;100.00
49627;BME280;35527;54.616;39.786;2023-07-09T02:38:09;99428.28;;;18.48;100.00
49627;BME280;35527;54.616;39.786;2023-07-09T02:41:14;99412.31;;;18.39;100.00
49627;BME280;35527;54.616;39.786;2023-07-09T02:44:19;99422.09;;;18.37;100.00
49627;BME280;35527;54.616;39.786;2023-07-09T02:47:22;99407.69;;;18.32;100.00
49627;BME280;35527;54.616;39.786;2023-07-09T02:50:27;99411.72;;;18.36;100.00
49627;BME280;35527;54.616;39.786;2023-07-09T02:53:32;99404.09;;;18.33;100.00
49627;BME280;35527;54.616;39.786;2023-07-09T02:56:36;99406.38;;;18.37;100.00
49627;BME280;35527;54.616;39.786;2023-07-09T02:59:40;99396.72;;;18.38;100.00
49627;BME280;35527;54.616;39.786;2023-07-09T03:02:44;99394.09;;;18.38;100.00
49627;BME280;35527;54.616;39.786;2023-07-09T03:05:52;99423.28;;;18.56;100.00
49627;BME280;35527;54.616;39.786;2023-07-09T03:08:54;99414.44;;;18.57;100.00
49627;BME280;35527;54.616;39.786;2023-07-09T03:12:00;99415.50;;;18.65;100.00
49627;BME280;35527;54.616;39.786;2023-07-09T03:15:03;99397.88;;;18.67;100.00
49627;BME280;35527;54.616;39.786;2023-07-09T03:18:10;99406.84;;;18.76;100.00
49627;BME280;35527;54.616;39.786;2023-07-09T03:21:14;99396.09;;;18.79;100.00
49627;BME280;35527;54.616;39.786;2023-07-09T03:24:23;99399.66;;;18.89;100.00
49627;BME280;35527;54.616;39.786;2023-07-09T03:27:26;99406.06;;;18.97;100.00
49627;BME280;35527;54.616;39.786;2023-07-09T03:30:31;99397.84;;;19.01;100.00
49627;BME280;35527;54.616;39.786;2023-07-09T03:33:34;99407.25;;;19.04;100.00
49627;BME280;35527;54.616;39.786;2023-07-09T03:36:37;99392.13;;;18.96;100.00
49627;BME280;35527;54.616;39.786;2023-07-09T03:39:41;99403.66;;;19.05;100.00
49627;BME280;35527;54.616;39.786;2023-07-09T03:42:47;99398.13;;;19.19;100.00
49627;BME280;35527;54.616;39.786;2023-07-09T03:45:50;99389.31;;;19.20;100.00
49627;BME280;35527;54.616;39.786;2023-07-09T03:48:53;99370.03;;;19.10;100.00
49627;BME280;35527;54.616;39.786;2023-07-09T03:51:55;99375.47;;;19.18;100.00
49627;BME280;35527;54.616;39.786;2023-07-09T03:55:01;99376.88;;;19.22;100.00
49627;BME280;35527;54.616;39.786;2023-07-09T03:58:06;99364.38;;;19.26;100.00
49627;BME280;35527;54.616;39.786;2023-07-09T04:01:09;99372.16;;;19.37;100.00
49627;BME280;35527;54.616;39.786;2023-07-09T04:04:13;99376.47;;;19.59;100.00
49627;BME280;35527;54.616;39.786;2023-07-09T04:07:18;99360.53;;;19.51;100.00
49627;BME280;35527;54.616;39.786;2023-07-09T04:10:22;99364.38;;;19.68;100.00
49627;BME280;35527;54.616;39.786;2023-07-09T04:13:26;99360.16;;;19.76;100.00
49627;BME280;35527;54.616;39.786;2023-07-09T04:16:30;99371.75;;;19.95;100.00
49627;BME280;35527;54.616;39.786;2023-07-09T04:19:38;99358.53;;;19.85;100.00
49627;BME280;35527;54.616;39.786;2023-07-09T04:22:41;99371.88;;;19.93;100.00
49627;BME280;35527;54.616;39.786;2023-07-09T04:25:45;99371.47;;;19.98;100.00
49627;BME280;35527;54.616;39.786;2023-07-09T04:28:47;99361.75;;;19.89;100.00
49627;BME280;35527;54.616;39.786;2023-07-09T04:31:52;99374.88;;;20.19;100.00
49627;BME280;35527;54.616;39.786;2023-07-09T04:34:55;99372.56;;;20.26;100.00
49627;BME280;35527;54.616;39.786;2023-07-09T04:37:57;99367.38;;;20.45;100.00
49627;BME280;35527;54.616;39.786;2023-07-09T04:41:00;99371.16;;;20.53;100.00
49627;BME280;35527;54.616;39.786;2023-07-09T04:44:04;99356.72;;;20.47;100.00
49627;BME280;35527;54.616;39.786;2023-07-09T04:47:07;99350.91;;;20.43;100.00
49627;BME280;35527;54.616;39.786;2023-07-09T04:50:11;99363.34;;;20.41;100.00
49627;BME280;35527;54.616;39.786;2023-07-09T04:53:15;99361.69;;;20.40;100.00
49627;BME280;35527;54.616;39.786;2023-07-09T04:56:28;99365.59;;;20.46;100.00
49627;BME280;35527;54.616;39.786;2023-07-09T04:59:32;99335.91;;;20.24;100.00
49627;BME280;35527;54.616;39.786;2023-07-09T05:02:38;99361.44;;;20.43;100.00
49627;BME280;35527;54.616;39.786;2023-07-09T05:05:45;99346.44;;;20.34;100.00
49627;BME280;35527;54.616;39.786;2023-07-09T05:08:55;99352.84;;;20.51;100.00
49627;BME280;35527;54.616;39.786;2023-07-09T05:11:58;99360.06;;;20.49;100.00
49627;BME280;35527;54.616;39.786;2023-07-09T05:15:01;99342.31;;;20.41;100.00
49627;BME280;35527;54.616;39.786;2023-07-09T05:18:06;99348.78;;;20.37;100.00
49627;BME280;35527;54.616;39.786;2023-07-09T05:21:12;99352.66;;;20.33;100.00
49627;BME280;35527;54.616;39.786;2023-07-09T05:24:15;99332.00;;;20.19;100.00
49627;BME280;35527;54.616;39.786;2023-07-09T05:27:19;99332.31;;;20.25;100.00
49627;BME280;35527;54.616;39.786;2023-07-09T05:30:22;99345.75;;;20.32;100.00
49627;BME280;35527;54.616;39.786;2023-07-09T05:33:27;99295.97;;;20.00;100.00
49627;BME280;35527;54.616;39.786;2023-07-09T05:36:30;99340.28;;;20.14;100.00
49627;BME280;35527;54.616;39.786;2023-07-09T05:39:34;99336.56;;;20.17;100.00
49627;BME280;35527;54.616;39.786;2023-07-09T05:42:39;99331.09;;;20.30;100.00
49627;BME280;35527;54.616;39.786;2023-07-09T05:45:45;99337.59;;;20.35;100.00
49627;BME280;35527;54.616;39.786;2023-07-09T05:48:48;99335.06;;;20.24;100.00
49627;BME280;35527;54.616;39.786;2023-07-09T05:51:51;99337.72;;;20.24;100.00
49627;BME280;35527;54.616;39.786;2023-07-09T05:54:54;99318.69;;;20.11;100.00
49627;BME280;35527;54.616;39.786;2023-07-09T05:58:00;99325.41;;;20.34;100.00
49627;BME280;35527;54.616;39.786;2023-07-09T06:01:05;99330.72;;;20.44;100.00
49627;BME280;35527;54.616;39.786;2023-07-09T06:04:09;99324.31;;;20.37;100.00
49627;BME280;35527;54.616;39.786;2023-07-09T06:07:16;99315.75;;;20.35;100.00
49627;BME280;35527;54.616;39.786;2023-07-09T06:10:20;99329.00;;;20.33;100.00
49627;BME280;35527;54.616;39.786;2023-07-09T06:13:25;99277.63;;;20.10;100.00
49627;BME280;35527;54.616;39.786;2023-07-09T06:16:31;99316.69;;;20.24;99.43
49627;BME280;35527;54.616;39.786;2023-07-09T06:19:34;99312.81;;;20.28;100.00
49627;BME280;35527;54.616;39.786;2023-07-09T06:22:38;99322.78;;;20.34;100.00
49627;BME280;35527;54.616;39.786;2023-07-09T06:25:43;99313.78;;;20.27;99.40
49627;BME280;35527;54.616;39.786;2023-07-09T06:28:47;99314.88;;;20.24;98.34
49627;BME280;35527;54.616;39.786;2023-07-09T06:31:52;99303.34;;;20.06;98.90
49627;BME280;35527;54.616;39.786;2023-07-09T06:34:55;99291.59;;;20.00;99.04
49627;BME280;35527;54.616;39.786;2023-07-09T06:38:02;99293.63;;;19.97;99.15
49627;BME280;35527;54.616;39.786;2023-07-09T06:41:06;99307.47;;;19.99;98.76
49627;BME280;35527;54.616;39.786;2023-07-09T06:44:09;99306.47;;;20.00;98.90
49627;BME280;35527;54.616;39.786;2023-07-09T06:47:13;99265.50;;;19.78;98.12
49627;BME280;35527;54.616;39.786;2023-07-09T06:50:17;99305.94;;;19.96;97.72
49627;BME280;35527;54.616;39.786;2023-07-09T06:53:23;99292.88;;;19.85;96.44
49627;BME280;35527;54.616;39.786;2023-07-09T06:56:26;99281.19;;;19.68;97.56
49627;BME280;35527;54.616;39.786;2023-07-09T06:59:30;99265.44;;;19.99;99.02
49627;BME280;35527;54.616;39.786;2023-07-09T07:02:32;99282.69;;;20.42;97.64
49627;BME280;35527;54.616;39.786;2023-07-09T07:05:36;99286.19;;;20.62;95.65
49627;BME280;35527;54.616;39.786;2023-07-09T07:08:39;99267.19;;;20.48;96.48
49627;BME280;35527;54.616;39.786;2023-07-09T07:11:42;99271.06;;;20.35;98.71
49627;BME280;35527;54.616;39.786;2023-07-09T07:14:45;99285.84;;;20.36;99.95
49627;BME280;35527;54.616;39.786;2023-07-09T07:17:49;99288.47;;;20.26;100.00
49627;BME280;35527;54.616;39.786;2023-07-09T07:20:52;99278.91;;;20.15;100.00
49627;BME280;35527;54.616;39.786;2023-07-09T07:23:55;99276.81;;;20.09;100.00
49627;BME280;35527;54.616;39.786;2023-07-09T07:27:01;99256.19;;;20.05;100.00
49627;BME280;35527;54.616;39.786;2023-07-09T07:30:04;99260.06;;;20.00;100.00
49627;BME280;35527;54.616;39.786;2023-07-09T07:33:08;99269.25;;;19.54;100.00
49627;BME280;35527;54.616;39.786;2023-07-09T07:36:14;99244.69;;;19.13;100.00
49627;BME280;35527;54.616;39.786;2023-07-09T07:39:19;99234.00;;;18.84;100.00
49627;BME280;35527;54.616;39.786;2023-07-09T07:42:23;99258.41;;;18.85;100.00
49627;BME280;35527;54.616;39.786;2023-07-09T07:45:26;99249.47;;;18.87;100.00
49627;BME280;35527;54.616;39.786;2023-07-09T07:48:29;99228.56;;;18.76;100.00
49627;BME280;35527;54.616;39.786;2023-07-09T07:51:33;99236.81;;;19.13;100.00
49627;BME280;35527;54.616;39.786;2023-07-09T07:54:38;99234.00;;;19.26;100.00
49627;BME280;35527;54.616;39.786;2023-07-09T07:57:42;99246.34;;;19.35;100.00
49627;BME280;35527;54.616;39.786;2023-07-09T08:00:45;99238.91;;;19.20;100.00
49627;BME280;35527;54.616;39.786;2023-07-09T08:03:50;99248.78;;;19.27;100.00
49627;BME280;35527;54.616;39.786;2023-07-09T08:06:59;99248.78;;;19.27;100.00
49627;BME280;35527;54.616;39.786;2023-07-09T08:10:02;99250.00;;;19.23;100.00
49627;BME280;35527;54.616;39.786;2023-07-09T08:13:05;99244.13;;;19.10;100.00
49627;BME280;35527;54.616;39.786;2023-07-09T08:16:09;99250.00;;;19.02;100.00
49627;BME280;35527;54.616;39.786;2023-07-09T08:19:13;99243.88;;;18.92;100.00
49627;BME280;35527;54.616;39.786;2023-07-09T08:22:17;99246.59;;;18.90;100.00
49627;BME280;35527;54.616;39.786;2023-07-09T08:25:23;99229.03;;;18.70;100.00
49627;BME280;35527;54.616;39.786;2023-07-09T08:28:26;99225.84;;;18.66;100.00
49627;BME280;35527;54.616;39.786;2023-07-09T08:31:29;99243.09;;;18.80;100.00
49627;BME280;35527;54.616;39.786;2023-07-09T08:34:33;99229.63;;;18.74;100.00
49627;BME280;35527;54.616;39.786;2023-07-09T08:37:38;99239.75;;;18.78;100.00
49627;BME280;35527;54.616;39.786;2023-07-09T08:40:41;99222.25;;;18.67;100.00
49627;BME280;35527;54.616;39.786;2023-07-09T08:44:11;99220.13;;;18.61;100.00
49627;BME280;35527;54.616;39.786;2023-07-09T08:47:47;99242.13;;;18.70;100.00
49627;BME280;35527;54.616;39.786;2023-07-09T08:51:00;99224.75;;;18.69;100.00
49627;BME280;35527;54.616;39.786;2023-07-09T08:54:12;99201.31;;;18.56;100.00
49627;BME280;35527;54.616;39.786;2023-07-09T08:57:27;99239.03;;;18.76;100.00
49627;BME280;35527;54.616;39.786;2023-07-09T09:00:37;99244.63;;;18.83;100.00
49627;BME280;35527;54.616;39.786;2023-07-09T09:03:50;99221.03;;;18.83;100.00
49627;BME280;35527;54.616;39.786;2023-07-09T09:07:19;99245.25;;;18.96;100.00
49627;BME280;35527;54.616;39.786;2023-07-09T09:10:42;99240.88;;;18.85;100.00
49627;BME280;35527;54.616;39.786;2023-07-09T09:13:46;99230.63;;;18.61;100.00
49627;BME280;35527;54.616;39.786;2023-07-09T09:16:52;99224.03;;;18.35;100.00
49627;BME280;35527;54.616;39.786;2023-07-09T09:20:04;99216.03;;;18.04;100.00
49627;BME280;35527;54.616;39.786;2023-07-09T09:23:14;99218.06;;;17.89;100.00
49627;BME280;35527;54.616;39.786;2023-07-09T09:26:38;99238.50;;;18.07;100.00
49627;BME280;35527;54.616;39.786;2023-07-09T09:29:44;99226.34;;;18.17;100.00
49627;BME280;35527;54.616;39.786;2023-07-09T09:36:03;99226.75;;;18.44;100.00
49627;BME280;35527;54.616;39.786;2023-07-09T09:39:10;99228.59;;;18.54;100.00
49627;BME280;35527;54.616;39.786;2023-07-09T09:42:13;99235.13;;;18.59;100.00
49627;BME280;35527;54.616;39.786;2023-07-09T09:45:27;99192.97;;;18.30;100.00
49627;BME280;35527;54.616;39.786;2023-07-09T09:48:31;99216.69;;;18.29;100.00
49627;BME280;35527;54.616;39.786;2023-07-09T09:51:40;99218.00;;;18.23;100.00
49627;BME280;35527;54.616;39.786;2023-07-09T09:54:54;99213.41;;;18.04;100.00
49627;BME280;35527;54.616;39.786;2023-07-09T09:58:01;99239.44;;;18.17;100.00
49627;BME280;35527;54.616;39.786;2023-07-09T10:01:05;99225.66;;;18.04;100.00
49627;BME280;35527;54.616;39.786;2023-07-09T10:04:15;99222.09;;;17.93;100.00
49627;BME280;35527;54.616;39.786;2023-07-09T10:07:43;99237.56;;;18.08;100.00
49627;BME280;35527;54.616;39.786;2023-07-09T10:10:47;99229.59;;;17.98;100.00
49627;BME280;35527;54.616;39.786;2023-07-09T10:13:51;99239.50;;;17.94;100.00
49627;BME280;35527;54.616;39.786;2023-07-09T10:20:32;99249.56;;;17.65;100.00
49627;BME280;35527;54.616;39.786;2023-07-09T10:23:54;99237.91;;;17.47;100.00
49627;BME280;35527;54.616;39.786;2023-07-09T10:27:11;99237.81;;;17.48;100.00
49627;BME280;35527;54.616;39.786;2023-07-09T10:40:25;99226.31;;;17.04;100.00
49627;BME280;35527;54.616;39.786;2023-07-09T10:43:45;99245.31;;;16.95;100.00
49627;BME280;35527;54.616;39.786;2023-07-09T10:47:04;99236.97;;;16.90;100.00
49627;BME280;35527;54.616;39.786;2023-07-09T10:50:26;99246.28;;;16.94;100.00
49627;BME280;35527;54.616;39.786;2023-07-09T10:56:37;99240.34;;;17.03;100.00
49627;BME280;35527;54.616;39.786;2023-07-09T10:59:46;99213.94;;;16.95;100.00
49627;BME280;35527;54.616;39.786;2023-07-09T11:03:00;99219.44;;;17.03;100.00
49627;BME280;35527;54.616;39.786;2023-07-09T11:06:14;99214.66;;;16.97;100.00
49627;BME280;35527;54.616;39.786;2023-07-09T11:09:29;99216.09;;;17.01;100.00
49627;BME280;35527;54.616;39.786;2023-07-09T11:12:39;99225.28;;;17.18;100.00
49627;BME280;35527;54.616;39.786;2023-07-09T11:15:46;99234.94;;;17.29;100.00
49627;BME280;35527;54.616;39.786;2023-07-09T11:19:00;99201.72;;;17.07;100.00
49627;BME280;35527;54.616;39.786;2023-07-09T11:22:16;99235.84;;;17.28;100.00
49627;BME280;35527;54.616;39.786;2023-07-09T11:25:31;99224.19;;;17.09;100.00
49627;BME280;35527;54.616;39.786;2023-07-09T11:28:37;99223.59;;;17.06;100.00
49627;BME280;35527;54.616;39.786;2023-07-09T11:31:43;99225.25;;;17.07;100.00
49627;BME280;35527;54.616;39.786;2023-07-09T11:34:52;99220.38;;;17.14;100.00
49627;BME280;35527;54.616;39.786;2023-07-09T11:37:56;99236.81;;;17.27;100.00
49627;BME280;35527;54.616;39.786;2023-07-09T11:41:01;99244.66;;;17.27;100.00
49627;BME280;35527;54.616;39.786;2023-07-09T11:44:20;99248.00;;;17.29;100.00
49627;BME280;35527;54.616;39.786;2023-07-09T11:47:34;99241.91;;;17.06;100.00
49627;BME280;35527;54.616;39.786;2023-07-09T11:50:47;99241.38;;;16.89;100.00
49627;BME280;35527;54.616;39.786;2023-07-09T11:53:54;99221.13;;;16.56;100.00
49627;BME280;35527;54.616;39.786;2023-07-09T11:57:00;99230.69;;;16.44;100.00
49627;BME280;35527;54.616;39.786;2023-07-09T12:00:08;99228.69;;;16.48;100.00
49627;BME280;35527;54.616;39.786;2023-07-09T12:03:25;99228.81;;;16.47;100.00
49627;BME280;35527;54.616;39.786;2023-07-09T12:06:32;99214.19;;;16.44;100.00
49627;BME280;35527;54.616;39.786;2023-07-09T12:09:40;99232.72;;;16.41;100.00
49627;BME280;35527;54.616;39.786;2023-07-09T12:12:44;99223.75;;;16.32;100.00
49627;BME280;35527;54.616;39.786;2023-07-09T12:15:48;99219.06;;;16.37;100.00
49627;BME280;35527;54.616;39.786;2023-07-09T12:18:52;99213.94;;;16.36;100.00
49627;BME280;35527;54.616;39.786;2023-07-09T12:21:58;99199.88;;;16.26;100.00
49627;BME280;35527;54.616;39.786;2023-07-09T12:25:19;99216.53;;;16.36;100.00
49627;BME280;35527;54.616;39.786;2023-07-09T12:28:27;99219.59;;;16.30;100.00
49627;BME280;35527;54.616;39.786;2023-07-09T12:31:31;99219.22;;;16.23;100.00
49627;BME280;35527;54.616;39.786;2023-07-09T12:34:35;99184.78;;;16.05;100.00
49627;BME280;35527;54.616;39.786;2023-07-09T12:37:39;99189.69;;;16.10;100.00
49627;BME280;35527;54.616;39.786;2023-07-09T12:40:43;99197.22;;;16.14;100.00
49627;BME280;35527;54.616;39.786;2023-07-09T12:43:46;99186.03;;;16.12;100.00
49627;BME280;35527;54.616;39.786;2023-07-09T12:46:53;99186.25;;;16.09;100.00
49627;BME280;35527;54.616;39.786;2023-07-09T12:50:01;99201.41;;;16.04;100.00
49627;BME280;35527;54.616;39.786;2023-07-09T12:53:14;99183.59;;;15.98;100.00
49627;BME280;35527;54.616;39.786;2023-07-09T12:56:21;99194.03;;;15.98;100.00
49627;BME280;35527;54.616;39.786;2023-07-09T12:59:38;99201.75;;;15.99;100.00
49627;BME280;35527;54.616;39.786;2023-07-09T13:02:42;99197.25;;;16.02;100.00
49627;BME280;35527;54.616;39.786;2023-07-09T13:06:29;99191.81;;;16.05;100.00
49627;BME280;35527;54.616;39.786;2023-07-09T13:09:36;99192.16;;;16.00;100.00
49627;BME280;35527;54.616;39.786;2023-07-09T13:12:39;99207.69;;;16.02;100.00
49627;BME280;35527;54.616;39.786;2023-07-09T13:15:44;99184.25;;;15.89;100.00
49627;BME280;35527;54.616;39.786;2023-07-09T13:18:50;99165.97;;;15.89;100.00
49627;BME280;35527;54.616;39.786;2023-07-09T13:21:55;99190.81;;;15.94;100.00
49627;BME280;35527;54.616;39.786;2023-07-09T13:24:57;99157.13;;;15.79;100.00
49627;BME280;35527;54.616;39.786;2023-07-09T13:28:00;99172.97;;;15.88;100.00
49627;BME280;35527;54.616;39.786;2023-07-09T13:31:13;99176.13;;;15.81;100.00
49627;BME280;35527;54.616;39.786;2023-07-09T13:37:26;99140.84;;;15.62;100.00
49627;BME280;35527;54.616;39.786;2023-07-09T13:40:28;99153.53;;;15.68;100.00
49627;BME280;35527;54.616;39.786;2023-07-09T13:43:34;99164.44;;;15.73;100.00
49627;BME280;35527;54.616;39.786;2023-07-09T13:46:41;99148.91;;;15.72;100.00
49627;BME280;35527;54.616;39.786;2023-07-09T13:49:45;99140.47;;;15.68;100.00
49627;BME280;35527;54.616;39.786;2023-07-09T13:52:52;99140.13;;;15.73;100.00
49627;BME280;35527;54.616;39.786;2023-07-09T13:55:55;99123.78;;;15.71;100.00
49627;BME280;35527;54.616;39.786;2023-07-09T13:59:00;99128.44;;;15.79;100.00
49627;BME280;35527;54.616;39.786;2023-07-09T14:02:19;99123.13;;;15.80;100.00
49627;BME280;35527;54.616;39.786;2023-07-09T14:05:22;99126.31;;;15.84;100.00
49627;BME280;35527;54.616;39.786;2023-07-09T14:08:26;99103.19;;;15.66;100.00
49627;BME280;35527;54.616;39.786;2023-07-09T14:11:55;99117.38;;;15.75;100.00
49627;BME280;35527;54.616;39.786;2023-07-09T14:15:01;99096.50;;;15.62;100.00
49627;BME280;35527;54.616;39.786;2023-07-09T14:18:15;99097.47;;;15.74;100.00
49627;BME280;35527;54.616;39.786;2023-07-09T14:21:25;99092.94;;;15.76;100.00
49627;BME280;35527;54.616;39.786;2023-07-09T14:24:29;99108.66;;;15.87;100.00
49627;BME280;35527;54.616;39.786;2023-07-09T14:27:33;99079.53;;;15.69;100.00
49627;BME280;35527;54.616;39.786;2023-07-09T14:30:36;99094.00;;;15.73;100.00
49627;BME280;35527;54.616;39.786;2023-07-09T14:33:40;99105.22;;;15.87;100.00
49627;BME280;35527;54.616;39.786;2023-07-09T14:36:52;99126.72;;;15.90;100.00
49627;BME280;35527;54.616;39.786;2023-07-09T14:39:55;99121.94;;;15.84;100.00
49627;BME280;35527;54.616;39.786;2023-07-09T14:42:58;99125.16;;;15.88;100.00
49627;BME280;35527;54.616;39.786;2023-07-09T14:46:02;99099.56;;;15.69;100.00
49627;BME280;35527;54.616;39.786;2023-07-09T14:49:08;99092.84;;;15.65;100.00
49627;BME280;35527;54.616;39.786;2023-07-09T14:52:14;99112.47;;;15.70;100.00
49627;BME280;35527;54.616;39.786;2023-07-09T14:55:23;99088.81;;;15.61;100.00
49627;BME280;35527;54.616;39.786;2023-07-09T14:58:29;99087.84;;;15.62;100.00
49627;BME280;35527;54.616;39.786;2023-07-09T15:01:32;99097.03;;;15.67;100.00
49627;BME280;35527;54.616;39.786;2023-07-09T15:04:37;99098.94;;;15.65;100.00
49627;BME280;35527;54.616;39.786;2023-07-09T15:07:40;99095.47;;;15.65;100.00
49627;BME280;35527;54.616;39.786;2023-07-09T15:10:42;99090.59;;;15.60;100.00
49627;BME280;35527;54.616;39.786;2023-07-09T15:13:48;99096.63;;;15.61;100.00
49627;BME280;35527;54.616;39.786;2023-07-09T15:16:53;99103.63;;;15.60;100.00
49627;BME280;35527;54.616;39.786;2023-07-09T15:19:58;99086.22;;;15.48;100.00
49627;BME280;35527;54.616;39.786;2023-07-09T15:23:01;99099.34;;;15.59;100.00
49627;BME280;35527;54.616;39.786;2023-07-09T15:26:12;99105.28;;;15.61;100.00
49627;BME280;35527;54.616;39.786;2023-07-09T15:29:15;99085.31;;;15.49;100.00
49627;BME280;35527;54.616;39.786;2023-07-09T15:32:17;99087.47;;;15.55;100.00
49627;BME280;35527;54.616;39.786;2023-07-09T15:35:25;99109.25;;;15.67;100.00
49627;BME280;35527;54.616;39.786;2023-07-09T15:38:32;99107.56;;;15.66;100.00
49627;BME280;35527;54.616;39.786;2023-07-09T15:41:38;99095.91;;;15.59;100.00
49627;BME280;35527;54.616;39.786;2023-07-09T15:44:41;99080.09;;;15.49;100.00
49627;BME280;35527;54.616;39.786;2023-07-09T15:47:47;99085.53;;;15.46;100.00
49627;BME280;35527;54.616;39.786;2023-07-09T15:50:49;99099.06;;;15.51;100.00
49627;BME280;35527;54.616;39.786;2023-07-09T15:53:54;99107.59;;;15.53;100.00
49627;BME280;35527;54.616;39.786;2023-07-09T15:56:58;99094.56;;;15.53;100.00
49627;BME280;35527;54.616;39.786;2023-07-09T16:00:26;99091.13;;;15.52;100.00
49627;BME280;35527;54.616;39.786;2023-07-09T16:03:31;99090.06;;;15.55;100.00
49627;BME280;35527;54.616;39.786;2023-07-09T16:06:37;99076.22;;;15.54;100.00
49627;BME280;35527;54.616;39.786;2023-07-09T16:09:41;99058.19;;;15.51;100.00
49627;BME280;35527;54.616;39.786;2023-07-09T16:12:46;99050.22;;;15.53;100.00
49627;BME280;35527;54.616;39.786;2023-07-09T16:15:51;99066.91;;;15.63;100.00
49627;BME280;35527;54.616;39.786;2023-07-09T16:18:55;99067.50;;;15.67;100.00
49627;BME280;35527;54.616;39.786;2023-07-09T16:22:05;99062.50;;;15.64;100.00
49627;BME280;35527;54.616;39.786;2023-07-09T16:25:46;99057.06;;;15.67;100.00
49627;BME280;35527;54.616;39.786;2023-07-09T16:28:52;99062.59;;;15.62;100.00
49627;BME280;35527;54.616;39.786;2023-07-09T16:31:56;99051.25;;;15.63;100.00